Apellis — 3FJT2 — position and weather

sailwx.info

Track history (hours):
 
Tides and Currents Weather Stations Pressure Air Temp Water Temp Dewpoint Dewpoint Depression Visibility Wind Speed Wind Dir Waves Ship Positions

Apellis

Last reported at 2015-Aug-03 10:33 UTC. Time now 2015-Aug-03 10:37 UTC.
Position N 01°17' E 103°55'.

Length 178 m; draft 6.1 m.

Type: Cargo ship. MMSI: 353847000.

Date/timePositionNaut miles runAvg speedWind from/ knotsBaromVisibWave heightAir tempDewpointWater temp
2015-Aug-03 10:33N 01°17' E 103°55'0 0.0
2015-Aug-03 09:33N 01°17' E 103°55'4 3.5
2015-Aug-03 08:33N 01°14' E 103°54'10 5.1
2015-Aug-03 06:33N 01°15' E 103°44'142 6.5
2015-Aug-02 08:32N 02°24' E 101°39'19 9.5
2015-Aug-02 06:33N 02°35' E 101°24'18 9.1
2015-Aug-02 04:33N 02°43' E 101°08'11 9.2
2015-Aug-02 03:21N 02°49' E 100°59'17 9.7
2015-Aug-02 01:33N 03°01' E 100°46'20 9.8
2015-Aug-01 23:33N 03°14' E 100°31'  
Track history (hours):
 
Tides and Currents Weather Stations Pressure Air Temp Water Temp Dewpoint Dewpoint Depression Visibility Wind Speed Wind Dir Waves Ship Positions

Apellis

Last reported at 2015-Aug-03 10:33 UTC. Time now 2015-Aug-03 10:37 UTC.
Position N 01°17' E 103°55'.

Length 178 m; draft 6.1 m.

Type: Cargo ship. MMSI: 353847000.

Date/timePositionNaut miles runAvg speedWind from/ knotsBaromVisibWave heightAir tempDewpointWater temp
2015-Aug-03 10:33N 01°17' E 103°55'0 0.0
2015-Aug-03 09:33N 01°17' E 103°55'4 3.5
2015-Aug-03 08:33N 01°14' E 103°54'10 5.1
2015-Aug-03 06:33N 01°15' E 103°44'142 6.5
2015-Aug-02 08:32N 02°24' E 101°39'19 9.5
2015-Aug-02 06:33N 02°35' E 101°24'18 9.1
2015-Aug-02 04:33N 02°43' E 101°08'11 9.2
2015-Aug-02 03:21N 02°49' E 100°59'17 9.7
2015-Aug-02 01:33N 03°01' E 100°46'20 9.8
2015-Aug-01 23:33N 03°14' E 100°31'  

Dump ship's entire track history